Aeroporto :
LOGIN :

Iscrizione | Disclaimer

   EN    FR    IT 

 










Sommario :    VFR   VFR Marginale   IFR   IFR Intensivo   IFR Molto Intensivo
Visibilità : 
Base nubi : 
>= 8 km
>= 3000ft
5 / 8 km
1000 / 3000 ft
1500m / 5 km
500 / 1000 ft
800 / 1500m
200 / 500 ft
< 800m
< 200 ft
Simboli :   Temporali  Nebbia  Neve Forte  Precipitazioni Forti  Vento > 20 kt
SIGMETs :   Varie  Temporali  Ghiacco  Turbolenza  Onda orograficha  Ceneri Vulcaniche






- Altitudine del aeroporto : 341 ft


EPMO - Modlin

ULTIMO METAR :
  • 140630Z 25008KT 9999 BKN010 04/03 Q1011

METARs OBSOLETI :
  • 140600Z 24008KT 9999 SCT008 BKN012 04/04 Q1010
  • 140530Z 25008KT 220V280 9999 BKN009 04/03 Q1009
  • 140500Z 25009KT 9999 SCT008 OVC010 04/04 Q1009
  • 140430Z 25011KT 6000 OVC005 04/04 Q1008
  • 140400Z 25011KT 7000 OVC005 04/04 Q1008

TAF TAF EPMO
Valido dal 14 a 06 ore il 15 a 06 ore UTC


140530Z 1406/1506 27010KT 9999 OVC005
BECMG 1406/1409 VRB02KT BKN012
BECMG 1409/1411 BKN018
BECMG 1418/1420 07010KT
BECMG 1500/1502 BKN006
TEMPO 1502/1506 -RA BKN003
PROB40 1504/1506 2000 BR



MetMap, La meteo Aeronautica in un colpo d'occhio ! - Copyright ORBIFLY Dicembre 2007 - Disclaimer

ORBIFLY MET'MAP TEAM :

Programmazione e sviluppo : Alexandra Zaïnal
Concezione e sviluppo : Baudouin d'Aumeries
Co-Programmazione e sviluppo : Marc-Olivier Méhu
Supporto tecnico e logistico : Manuel Goepfert
Aiuto per la traduzione : Arnaldo La Scala

Contatto : metmap@orbifly.com




FONTI E CREDITI :

   NOAA